sensor_id;sensor_type;location;lat;lon;timestamp;P1;durP1;ratioP1;P2;durP2;ratioP2
28760;SDS011;15917;50.014;8.352;2023-02-19T00:00:30;6.35;;;3.45;;
28760;SDS011;15917;50.014;8.352;2023-02-19T00:02:56;6.32;;;2.97;;
28760;SDS011;15917;50.014;8.352;2023-02-19T00:05:22;10.15;;;3.13;;
28760;SDS011;15917;50.014;8.352;2023-02-19T00:07:48;3.85;;;2.92;;
28760;SDS011;15917;50.014;8.352;2023-02-19T00:10:14;4.68;;;3.10;;
28760;SDS011;15917;50.014;8.352;2023-02-19T00:12:39;7.35;;;3.33;;
28760;SDS011;15917;50.014;8.352;2023-02-19T00:15:05;7.18;;;3.95;;
28760;SDS011;15917;50.014;8.352;2023-02-19T00:17:31;5.40;;;3.40;;
28760;SDS011;15917;50.014;8.352;2023-02-19T00:19:56;4.55;;;3.15;;
28760;SDS011;15917;50.014;8.352;2023-02-19T00:22:22;7.22;;;3.25;;
28760;SDS011;15917;50.014;8.352;2023-02-19T00:24:47;6.38;;;3.10;;
28760;SDS011;15917;50.014;8.352;2023-02-19T00:27:14;4.18;;;3.35;;
28760;SDS011;15917;50.014;8.352;2023-02-19T00:29:39;7.82;;;4.22;;
28760;SDS011;15917;50.014;8.352;2023-02-19T00:32:05;4.63;;;3.55;;
28760;SDS011;15917;50.014;8.352;2023-02-19T00:34:30;7.80;;;4.00;;
28760;SDS011;15917;50.014;8.352;2023-02-19T00:36:56;5.15;;;3.83;;
28760;SDS011;15917;50.014;8.352;2023-02-19T00:39:22;5.75;;;3.78;;
28760;SDS011;15917;50.014;8.352;2023-02-19T00:41:47;9.18;;;3.80;;
28760;SDS011;15917;50.014;8.352;2023-02-19T00:44:13;7.00;;;4.10;;
28760;SDS011;15917;50.014;8.352;2023-02-19T00:46:40;5.53;;;3.60;;
28760;SDS011;15917;50.014;8.352;2023-02-19T00:49:08;9.18;;;4.32;;
28760;SDS011;15917;50.014;8.352;2023-02-19T00:51:40;4.90;;;3.28;;
28760;SDS011;15917;50.014;8.352;2023-02-19T00:54:06;7.35;;;3.78;;
28760;SDS011;15917;50.014;8.352;2023-02-19T00:56:32;8.60;;;4.18;;
28760;SDS011;15917;50.014;8.352;2023-02-19T00:58:57;6.82;;;3.63;;
28760;SDS011;15917;50.014;8.352;2023-02-19T01:01:23;7.50;;;3.35;;
28760;SDS011;15917;50.014;8.352;2023-02-19T01:03:49;8.32;;;3.30;;
28760;SDS011;15917;50.014;8.352;2023-02-19T01:06:16;7.18;;;3.55;;
28760;SDS011;15917;50.014;8.352;2023-02-19T01:08:43;8.07;;;4.18;;
28760;SDS011;15917;50.014;8.352;2023-02-19T01:11:08;4.75;;;3.42;;
28760;SDS011;15917;50.014;8.352;2023-02-19T01:13:35;7.88;;;3.75;;
28760;SDS011;15917;50.014;8.352;2023-02-19T01:16:05;4.68;;;3.72;;
28760;SDS011;15917;50.014;8.352;2023-02-19T01:18:33;7.57;;;3.45;;
28760;SDS011;15917;50.014;8.352;2023-02-19T01:21:03;9.35;;;3.45;;
28760;SDS011;15917;50.014;8.352;2023-02-19T01:23:33;4.63;;;3.50;;
28760;SDS011;15917;50.014;8.352;2023-02-19T01:25:59;5.53;;;3.38;;
28760;SDS011;15917;50.014;8.352;2023-02-19T01:28:27;5.68;;;3.65;;
28760;SDS011;15917;50.014;8.352;2023-02-19T01:30:53;4.18;;;3.05;;
28760;SDS011;15917;50.014;8.352;2023-02-19T01:33:19;11.63;;;3.83;;
28760;SDS011;15917;50.014;8.352;2023-02-19T01:35:44;6.30;;;3.60;;
28760;SDS011;15917;50.014;8.352;2023-02-19T01:38:10;6.85;;;3.90;;
28760;SDS011;15917;50.014;8.352;2023-02-19T01:40:36;4.38;;;3.50;;
28760;SDS011;15917;50.014;8.352;2023-02-19T01:43:01;7.68;;;3.47;;
28760;SDS011;15917;50.014;8.352;2023-02-19T01:45:34;5.90;;;2.60;;
28760;SDS011;15917;50.014;8.352;2023-02-19T01:51:05;3.47;;;2.50;;
28760;SDS011;15917;50.014;8.352;2023-02-19T01:53:42;5.72;;;2.17;;
28760;SDS011;15917;50.014;8.352;2023-02-19T01:56:12;2.67;;;2.38;;
28760;SDS011;15917;50.014;8.352;2023-02-19T01:58:40;2.38;;;1.92;;
28760;SDS011;15917;50.014;8.352;2023-02-19T02:01:06;7.03;;;2.00;;
28760;SDS011;15917;50.014;8.352;2023-02-19T02:03:34;3.43;;;2.17;;
28760;SDS011;15917;50.014;8.352;2023-02-19T02:06:13;2.67;;;2.15;;
28760;SDS011;15917;50.014;8.352;2023-02-19T02:08:46;2.97;;;2.45;;
28760;SDS011;15917;50.014;8.352;2023-02-19T02:11:31;4.00;;;1.90;;
28760;SDS011;15917;50.014;8.352;2023-02-19T02:13:58;5.88;;;2.00;;
28760;SDS011;15917;50.014;8.352;2023-02-19T02:16:28;3.92;;;2.15;;
28760;SDS011;15917;50.014;8.352;2023-02-19T02:22:39;2.38;;;1.70;;
28760;SDS011;15917;50.014;8.352;2023-02-19T02:25:25;4.35;;;1.85;;
28760;SDS011;15917;50.014;8.352;2023-02-19T02:28:00;5.80;;;1.80;;
28760;SDS011;15917;50.014;8.352;2023-02-19T02:30:43;1.67;;;1.55;;
28760;SDS011;15917;50.014;8.352;2023-02-19T02:36:08;2.78;;;1.63;;
28760;SDS011;15917;50.014;8.352;2023-02-19T02:38:39;3.10;;;1.88;;
28760;SDS011;15917;50.014;8.352;2023-02-19T02:41:08;4.28;;;2.30;;
28760;SDS011;15917;50.014;8.352;2023-02-19T02:43:34;3.47;;;2.00;;
28760;SDS011;15917;50.014;8.352;2023-02-19T02:46:00;4.57;;;1.75;;
28760;SDS011;15917;50.014;8.352;2023-02-19T02:51:03;1.88;;;1.65;;
28760;SDS011;15917;50.014;8.352;2023-02-19T02:53:49;2.25;;;1.63;;
28760;SDS011;15917;50.014;8.352;2023-02-19T02:56:39;2.58;;;1.80;;
28760;SDS011;15917;50.014;8.352;2023-02-19T02:59:07;5.03;;;2.20;;
28760;SDS011;15917;50.014;8.352;2023-02-19T03:01:42;3.97;;;2.15;;
28760;SDS011;15917;50.014;8.352;2023-02-19T03:07:36;3.67;;;2.22;;
28760;SDS011;15917;50.014;8.352;2023-02-19T03:10:08;5.00;;;1.95;;
28760;SDS011;15917;50.014;8.352;2023-02-19T03:12:37;3.28;;;2.10;;
28760;SDS011;15917;50.014;8.352;2023-02-19T03:15:25;3.47;;;2.17;;
28760;SDS011;15917;50.014;8.352;2023-02-19T03:18:14;3.63;;;2.03;;
28760;SDS011;15917;50.014;8.352;2023-02-19T03:21:01;3.90;;;2.20;;
28760;SDS011;15917;50.014;8.352;2023-02-19T03:26:16;6.53;;;1.80;;
28760;SDS011;15917;50.014;8.352;2023-02-19T03:28:49;5.28;;;1.90;;
28760;SDS011;15917;50.014;8.352;2023-02-19T03:31:37;8.38;;;2.30;;
28760;SDS011;15917;50.014;8.352;2023-02-19T03:34:11;3.65;;;2.13;;
28760;SDS011;15917;50.014;8.352;2023-02-19T03:37:12;6.85;;;1.70;;
28760;SDS011;15917;50.014;8.352;2023-02-19T03:39:44;3.13;;;1.77;;
28760;SDS011;15917;50.014;8.352;2023-02-19T03:48:14;2.97;;;1.65;;
28760;SDS011;15917;50.014;8.352;2023-02-19T03:50:51;1.85;;;1.40;;
28760;SDS011;15917;50.014;8.352;2023-02-19T03:53:31;1.95;;;1.40;;
28760;SDS011;15917;50.014;8.352;2023-02-19T03:56:12;3.67;;;1.45;;
28760;SDS011;15917;50.014;8.352;2023-02-19T03:58:57;2.10;;;1.45;;
28760;SDS011;15917;50.014;8.352;2023-02-19T04:06:29;1.77;;;0.93;;
28760;SDS011;15917;50.014;8.352;2023-02-19T04:08:58;1.17;;;1.00;;
28760;SDS011;15917;50.014;8.352;2023-02-19T04:11:27;2.45;;;1.05;;
28760;SDS011;15917;50.014;8.352;2023-02-19T04:14:02;1.70;;;1.08;;
28760;SDS011;15917;50.014;8.352;2023-02-19T04:16:29;1.67;;;1.10;;
28760;SDS011;15917;50.014;8.352;2023-02-19T04:19:00;1.25;;;1.00;;
28760;SDS011;15917;50.014;8.352;2023-02-19T04:21:31;1.38;;;0.90;;
28760;SDS011;15917;50.014;8.352;2023-02-19T04:23:58;2.50;;;0.97;;
28760;SDS011;15917;50.014;8.352;2023-02-19T04:26:28;1.85;;;1.35;;
28760;SDS011;15917;50.014;8.352;2023-02-19T04:28:56;1.40;;;1.00;;
28760;SDS011;15917;50.014;8.352;2023-02-19T04:31:21;1.45;;;1.08;;
28760;SDS011;15917;50.014;8.352;2023-02-19T04:33:48;1.33;;;1.23;;
28760;SDS011;15917;50.014;8.352;2023-02-19T04:36:13;0.60;;;0.60;;
28760;SDS011;15917;50.014;8.352;2023-02-19T04:38:39;0.85;;;0.77;;
28760;SDS011;15917;50.014;8.352;2023-02-19T04:41:04;1.55;;;1.00;;
28760;SDS011;15917;50.014;8.352;2023-02-19T04:43:30;2.40;;;1.00;;
28760;SDS011;15917;50.014;8.352;2023-02-19T04:45:59;3.97;;;1.65;;
28760;SDS011;15917;50.014;8.352;2023-02-19T04:48:25;1.50;;;0.80;;
28760;SDS011;15917;50.014;8.352;2023-02-19T04:50:51;1.25;;;0.93;;
28760;SDS011;15917;50.014;8.352;2023-02-19T04:53:17;1.65;;;1.00;;
28760;SDS011;15917;50.014;8.352;2023-02-19T04:55:43;1.45;;;1.05;;
28760;SDS011;15917;50.014;8.352;2023-02-19T04:58:08;0.65;;;0.60;;
28760;SDS011;15917;50.014;8.352;2023-02-19T05:00:34;0.82;;;0.50;;
28760;SDS011;15917;50.014;8.352;2023-02-19T05:03:00;1.50;;;0.47;;
28760;SDS011;15917;50.014;8.352;2023-02-19T05:05:25;0.60;;;0.50;;
28760;SDS011;15917;50.014;8.352;2023-02-19T05:07:51;1.77;;;0.77;;
28760;SDS011;15917;50.014;8.352;2023-02-19T05:10:17;1.17;;;0.45;;
28760;SDS011;15917;50.014;8.352;2023-02-19T05:12:43;2.00;;;0.68;;
28760;SDS011;15917;50.014;8.352;2023-02-19T05:15:08;0.90;;;0.52;;
28760;SDS011;15917;50.014;8.352;2023-02-19T05:17:34;2.05;;;0.50;;
28760;SDS011;15917;50.014;8.352;2023-02-19T05:19:59;1.92;;;0.80;;
28760;SDS011;15917;50.014;8.352;2023-02-19T05:22:27;1.88;;;0.70;;
28760;SDS011;15917;50.014;8.352;2023-02-19T05:27:18;3.47;;;0.70;;
28760;SDS011;15917;50.014;8.352;2023-02-19T05:29:44;2.08;;;0.90;;
28760;SDS011;15917;50.014;8.352;2023-02-19T05:32:10;1.73;;;0.80;;
28760;SDS011;15917;50.014;8.352;2023-02-19T05:34:35;1.40;;;1.08;;
28760;SDS011;15917;50.014;8.352;2023-02-19T05:37:01;1.20;;;0.70;;
28760;SDS011;15917;50.014;8.352;2023-02-19T05:39:26;1.17;;;0.70;;
28760;SDS011;15917;50.014;8.352;2023-02-19T05:41:52;1.92;;;1.00;;
28760;SDS011;15917;50.014;8.352;2023-02-19T05:44:17;2.15;;;0.90;;
28760;SDS011;15917;50.014;8.352;2023-02-19T05:46:43;1.15;;;0.95;;
28760;SDS011;15917;50.014;8.352;2023-02-19T05:49:09;1.30;;;0.93;;
28760;SDS011;15917;50.014;8.352;2023-02-19T05:51:34;3.67;;;1.10;;
28760;SDS011;15917;50.014;8.352;2023-02-19T05:54:00;5.82;;;1.15;;
28760;SDS011;15917;50.014;8.352;2023-02-19T05:56:35;1.20;;;0.90;;
28760;SDS011;15917;50.014;8.352;2023-02-19T05:59:04;3.55;;;1.00;;
28760;SDS011;15917;50.014;8.352;2023-02-19T06:01:41;2.85;;;1.10;;
28760;SDS011;15917;50.014;8.352;2023-02-19T06:04:07;0.98;;;0.70;;
28760;SDS011;15917;50.014;8.352;2023-02-19T06:06:34;2.95;;;1.00;;
28760;SDS011;15917;50.014;8.352;2023-02-19T06:09:01;5.78;;;1.20;;
28760;SDS011;15917;50.014;8.352;2023-02-19T06:11:28;2.85;;;0.80;;
28760;SDS011;15917;50.014;8.352;2023-02-19T06:13:54;3.88;;;1.13;;
28760;SDS011;15917;50.014;8.352;2023-02-19T06:16:19;1.83;;;1.08;;
28760;SDS011;15917;50.014;8.352;2023-02-19T06:18:46;1.92;;;1.10;;
28760;SDS011;15917;50.014;8.352;2023-02-19T06:21:12;1.92;;;1.20;;
28760;SDS011;15917;50.014;8.352;2023-02-19T06:23:39;3.25;;;0.80;;
28760;SDS011;15917;50.014;8.352;2023-02-19T06:26:07;8.75;;;1.40;;
28760;SDS011;15917;50.014;8.352;2023-02-19T06:28:39;1.65;;;0.63;;
28760;SDS011;15917;50.014;8.352;2023-02-19T06:31:05;2.95;;;0.77;;
28760;SDS011;15917;50.014;8.352;2023-02-19T06:33:32;3.42;;;1.20;;
28760;SDS011;15917;50.014;8.352;2023-02-19T06:35:59;5.30;;;1.17;;
28760;SDS011;15917;50.014;8.352;2023-02-19T06:38:26;2.58;;;0.85;;
28760;SDS011;15917;50.014;8.352;2023-02-19T06:40:52;1.90;;;1.05;;
28760;SDS011;15917;50.014;8.352;2023-02-19T06:43:17;3.53;;;0.80;;
28760;SDS011;15917;50.014;8.352;2023-02-19T06:45:43;4.13;;;1.05;;
28760;SDS011;15917;50.014;8.352;2023-02-19T06:48:09;4.72;;;0.75;;
28760;SDS011;15917;50.014;8.352;2023-02-19T06:50:34;3.72;;;1.00;;
28760;SDS011;15917;50.014;8.352;2023-02-19T06:53:00;1.80;;;0.88;;
28760;SDS011;15917;50.014;8.352;2023-02-19T06:55:26;3.47;;;0.90;;
28760;SDS011;15917;50.014;8.352;2023-02-19T06:57:51;3.33;;;1.15;;
28760;SDS011;15917;50.014;8.352;2023-02-19T07:00:17;2.55;;;0.90;;
28760;SDS011;15917;50.014;8.352;2023-02-19T07:02:42;2.75;;;1.00;;
28760;SDS011;15917;50.014;8.352;2023-02-19T07:05:08;3.08;;;0.93;;
28760;SDS011;15917;50.014;8.352;2023-02-19T07:07:34;4.90;;;1.00;;
28760;SDS011;15917;50.014;8.352;2023-02-19T07:09:59;6.15;;;0.90;;
28760;SDS011;15917;50.014;8.352;2023-02-19T07:12:25;4.80;;;1.08;;
28760;SDS011;15917;50.014;8.352;2023-02-19T07:14:50;2.70;;;1.00;;
28760;SDS011;15917;50.014;8.352;2023-02-19T07:17:16;6.60;;;1.33;;
28760;SDS011;15917;50.014;8.352;2023-02-19T07:19:41;6.00;;;1.30;;
28760;SDS011;15917;50.014;8.352;2023-02-19T07:22:07;1.85;;;0.88;;
28760;SDS011;15917;50.014;8.352;2023-02-19T07:24:32;2.67;;;1.15;;
28760;SDS011;15917;50.014;8.352;2023-02-19T07:26:58;1.85;;;1.15;;
28760;SDS011;15917;50.014;8.352;2023-02-19T07:29:24;2.13;;;0.68;;
28760;SDS011;15917;50.014;8.352;2023-02-19T07:31:49;5.35;;;1.13;;
28760;SDS011;15917;50.014;8.352;2023-02-19T07:34:15;6.05;;;1.13;;
28760;SDS011;15917;50.014;8.352;2023-02-19T07:36:40;2.63;;;0.90;;
28760;SDS011;15917;50.014;8.352;2023-02-19T07:39:06;4.95;;;1.00;;
28760;SDS011;15917;50.014;8.352;2023-02-19T07:41:31;3.97;;;0.93;;
28760;SDS011;15917;50.014;8.352;2023-02-19T07:43:57;6.28;;;1.58;;
28760;SDS011;15917;50.014;8.352;2023-02-19T07:46:23;4.00;;;1.38;;
28760;SDS011;15917;50.014;8.352;2023-02-19T07:48:49;3.83;;;0.80;;
28760;SDS011;15917;50.014;8.352;2023-02-19T07:51:15;7.88;;;1.23;;
28760;SDS011;15917;50.014;8.352;2023-02-19T07:53:43;7.95;;;1.40;;
28760;SDS011;15917;50.014;8.352;2023-02-19T07:56:10;5.43;;;1.40;;
28760;SDS011;15917;50.014;8.352;2023-02-19T07:58:37;4.95;;;1.13;;
28760;SDS011;15917;50.014;8.352;2023-02-19T08:01:10;4.65;;;1.02;;
28760;SDS011;15917;50.014;8.352;2023-02-19T08:03:38;5.68;;;1.23;;
28760;SDS011;15917;50.014;8.352;2023-02-19T08:06:04;4.22;;;1.08;;
28760;SDS011;15917;50.014;8.352;2023-02-19T08:08:30;5.07;;;1.17;;
28760;SDS011;15917;50.014;8.352;2023-02-19T08:11:00;6.07;;;1.42;;
28760;SDS011;15917;50.014;8.352;2023-02-19T08:16:12;9.82;;;1.85;;
28760;SDS011;15917;50.014;8.352;2023-02-19T08:18:41;8.60;;;1.90;;
28760;SDS011;15917;50.014;8.352;2023-02-19T08:21:07;6.65;;;1.75;;
28760;SDS011;15917;50.014;8.352;2023-02-19T08:23:33;5.70;;;1.58;;
28760;SDS011;15917;50.014;8.352;2023-02-19T08:26:00;2.65;;;1.17;;
28760;SDS011;15917;50.014;8.352;2023-02-19T08:28:26;6.50;;;1.42;;
28760;SDS011;15917;50.014;8.352;2023-02-19T08:30:56;7.35;;;1.60;;
28760;SDS011;15917;50.014;8.352;2023-02-19T08:33:23;5.60;;;1.45;;
28760;SDS011;15917;50.014;8.352;2023-02-19T08:35:49;8.88;;;1.25;;
28760;SDS011;15917;50.014;8.352;2023-02-19T08:38:14;4.50;;;1.20;;
28760;SDS011;15917;50.014;8.352;2023-02-19T08:40:40;3.75;;;1.35;;
28760;SDS011;15917;50.014;8.352;2023-02-19T08:43:07;11.68;;;1.70;;
28760;SDS011;15917;50.014;8.352;2023-02-19T08:45:35;3.97;;;1.25;;
28760;SDS011;15917;50.014;8.352;2023-02-19T08:48:02;6.50;;;1.52;;
28760;SDS011;15917;50.014;8.352;2023-02-19T08:50:28;8.60;;;1.20;;
28760;SDS011;15917;50.014;8.352;2023-02-19T08:52:54;3.78;;;1.20;;
28760;SDS011;15917;50.014;8.352;2023-02-19T08:55:20;5.75;;;1.50;;
28760;SDS011;15917;50.014;8.352;2023-02-19T08:57:46;7.32;;;1.23;;
28760;SDS011;15917;50.014;8.352;2023-02-19T09:00:11;4.97;;;1.50;;
28760;SDS011;15917;50.014;8.352;2023-02-19T09:02:38;7.47;;;2.33;;
28760;SDS011;15917;50.014;8.352;2023-02-19T09:05:03;5.35;;;1.33;;
28760;SDS011;15917;50.014;8.352;2023-02-19T09:07:29;6.47;;;1.50;;
28760;SDS011;15917;50.014;8.352;2023-02-19T09:09:55;3.63;;;1.60;;
28760;SDS011;15917;50.014;8.352;2023-02-19T09:12:21;4.53;;;1.08;;
28760;SDS011;15917;50.014;8.352;2023-02-19T09:14:47;7.50;;;1.40;;
28760;SDS011;15917;50.014;8.352;2023-02-19T09:17:12;3.40;;;1.23;;
28760;SDS011;15917;50.014;8.352;2023-02-19T09:19:38;9.73;;;2.13;;
28760;SDS011;15917;50.014;8.352;2023-02-19T09:22:04;6.13;;;1.75;;
28760;SDS011;15917;50.014;8.352;2023-02-19T09:24:30;4.95;;;1.42;;
28760;SDS011;15917;50.014;8.352;2023-02-19T09:26:55;5.93;;;1.65;;
28760;SDS011;15917;50.014;8.352;2023-02-19T09:29:23;5.75;;;1.65;;
28760;SDS011;15917;50.014;8.352;2023-02-19T09:31:49;3.72;;;1.77;;
28760;SDS011;15917;50.014;8.352;2023-02-19T09:34:15;6.13;;;1.50;;
28760;SDS011;15917;50.014;8.352;2023-02-19T09:36:41;7.45;;;1.67;;
28760;SDS011;15917;50.014;8.352;2023-02-19T09:39:07;3.58;;;1.40;;
28760;SDS011;15917;50.014;8.352;2023-02-19T09:44:12;9.30;;;1.92;;
28760;SDS011;15917;50.014;8.352;2023-02-19T09:46:46;5.47;;;1.38;;
28760;SDS011;15917;50.014;8.352;2023-02-19T09:52:10;20.80;;;2.78;;
28760;SDS011;15917;50.014;8.352;2023-02-19T09:54:38;9.88;;;1.80;;
28760;SDS011;15917;50.014;8.352;2023-02-19T09:57:05;6.20;;;1.40;;
28760;SDS011;15917;50.014;8.352;2023-02-19T09:59:39;4.60;;;1.20;;
28760;SDS011;15917;50.014;8.352;2023-02-19T10:02:24;6.28;;;1.52;;
28760;SDS011;15917;50.014;8.352;2023-02-19T10:04:51;1.65;;;1.30;;
28760;SDS011;15917;50.014;8.352;2023-02-19T10:07:51;7.60;;;1.83;;
28760;SDS011;15917;50.014;8.352;2023-02-19T10:12:38;8.40;;;1.70;;
28760;SDS011;15917;50.014;8.352;2023-02-19T10:15:11;13.07;;;2.63;;
28760;SDS011;15917;50.014;8.352;2023-02-19T10:17:52;5.13;;;1.42;;
28760;SDS011;15917;50.014;8.352;2023-02-19T10:20:19;6.78;;;1.88;;
28760;SDS011;15917;50.014;8.352;2023-02-19T10:22:50;7.50;;;1.83;;
28760;SDS011;15917;50.014;8.352;2023-02-19T10:25:23;10.85;;;2.00;;
28760;SDS011;15917;50.014;8.352;2023-02-19T10:27:49;4.55;;;1.80;;
28760;SDS011;15917;50.014;8.352;2023-02-19T10:30:20;6.00;;;1.70;;
28760;SDS011;15917;50.014;8.352;2023-02-19T10:32:59;12.25;;;2.42;;
28760;SDS011;15917;50.014;8.352;2023-02-19T10:35:37;7.57;;;1.83;;
28760;SDS011;15917;50.014;8.352;2023-02-19T10:38:15;5.32;;;1.70;;
28760;SDS011;15917;50.014;8.352;2023-02-19T10:40:43;8.88;;;2.15;;
28760;SDS011;15917;50.014;8.352;2023-02-19T10:43:12;6.10;;;1.80;;
28760;SDS011;15917;50.014;8.352;2023-02-19T10:45:55;8.18;;;2.40;;
28760;SDS011;15917;50.014;8.352;2023-02-19T10:48:23;9.23;;;2.15;;
28760;SDS011;15917;50.014;8.352;2023-02-19T10:50:53;7.25;;;1.90;;
28760;SDS011;15917;50.014;8.352;2023-02-19T10:53:23;6.05;;;2.05;;
28760;SDS011;15917;50.014;8.352;2023-02-19T10:56:07;7.00;;;2.13;;
28760;SDS011;15917;50.014;8.352;2023-02-19T10:58:38;15.75;;;2.75;;
28760;SDS011;15917;50.014;8.352;2023-02-19T11:03:34;6.38;;;1.98;;
28760;SDS011;15917;50.014;8.352;2023-02-19T11:06:04;6.50;;;1.60;;
28760;SDS011;15917;50.014;8.352;2023-02-19T11:08:38;8.85;;;1.98;;
28760;SDS011;15917;50.014;8.352;2023-02-19T11:11:22;6.85;;;1.73;;
28760;SDS011;15917;50.014;8.352;2023-02-19T11:13:54;6.88;;;1.60;;
28760;SDS011;15917;50.014;8.352;2023-02-19T11:16:22;7.70;;;1.80;;
28760;SDS011;15917;50.014;8.352;2023-02-19T11:18:52;6.03;;;1.60;;
28760;SDS011;15917;50.014;8.352;2023-02-19T11:21:28;8.57;;;1.40;;
28760;SDS011;15917;50.014;8.352;2023-02-19T11:24:00;6.68;;;1.45;;
28760;SDS011;15917;50.014;8.352;2023-02-19T11:26:30;5.35;;;1.52;;
28760;SDS011;15917;50.014;8.352;2023-02-19T11:29:10;8.45;;;1.88;;
28760;SDS011;15917;50.014;8.352;2023-02-19T11:31:43;6.10;;;1.30;;
28760;SDS011;15917;50.014;8.352;2023-02-19T11:36:39;9.02;;;1.55;;
28760;SDS011;15917;50.014;8.352;2023-02-19T11:45:02;5.00;;;1.65;;
28760;SDS011;15917;50.014;8.352;2023-02-19T11:47:59;9.90;;;2.00;;
28760;SDS011;15917;50.014;8.352;2023-02-19T11:53:28;6.63;;;1.90;;
28760;SDS011;15917;50.014;8.352;2023-02-19T12:01:13;7.93;;;2.10;;
28760;SDS011;15917;50.014;8.352;2023-02-19T12:04:19;10.03;;;3.50;;
28760;SDS011;15917;50.014;8.352;2023-02-19T12:15:59;11.88;;;2.15;;
28760;SDS011;15917;50.014;8.352;2023-02-19T12:21:19;4.05;;;1.52;;
28760;SDS011;15917;50.014;8.352;2023-02-19T12:24:09;11.85;;;2.17;;
28760;SDS011;15917;50.014;8.352;2023-02-19T12:27:00;12.70;;;1.88;;
28760;SDS011;15917;50.014;8.352;2023-02-19T12:29:40;5.28;;;1.75;;
28760;SDS011;15917;50.014;8.352;2023-02-19T12:32:30;9.93;;;1.80;;
28760;SDS011;15917;50.014;8.352;2023-02-19T12:35:17;6.20;;;1.67;;
28760;SDS011;15917;50.014;8.352;2023-02-19T12:38:12;8.27;;;1.53;;
28760;SDS011;15917;50.014;8.352;2023-02-19T12:40:56;7.35;;;1.75;;
28760;SDS011;15917;50.014;8.352;2023-02-19T12:43:24;18.65;;;6.35;;
28760;SDS011;15917;50.014;8.352;2023-02-19T12:46:00;8.77;;;1.73;;
28760;SDS011;15917;50.014;8.352;2023-02-19T12:48:32;4.43;;;1.50;;
28760;SDS011;15917;50.014;8.352;2023-02-19T12:51:10;5.63;;;1.65;;
28760;SDS011;15917;50.014;8.352;2023-02-19T12:53:54;4.65;;;1.77;;
28760;SDS011;15917;50.014;8.352;2023-02-19T12:56:27;5.63;;;1.65;;
28760;SDS011;15917;50.014;8.352;2023-02-19T13:01:46;4.32;;;1.35;;
28760;SDS011;15917;50.014;8.352;2023-02-19T13:04:23;4.55;;;1.73;;
28760;SDS011;15917;50.014;8.352;2023-02-19T13:09:38;8.35;;;1.50;;
28760;SDS011;15917;50.014;8.352;2023-02-19T13:12:12;4.93;;;1.35;;
28760;SDS011;15917;50.014;8.352;2023-02-19T13:14:45;8.15;;;1.30;;
28760;SDS011;15917;50.014;8.352;2023-02-19T13:20:19;8.50;;;1.88;;
28760;SDS011;15917;50.014;8.352;2023-02-19T13:31:47;4.90;;;1.40;;
28760;SDS011;15917;50.014;8.352;2023-02-19T13:34:45;5.10;;;1.40;;
28760;SDS011;15917;50.014;8.352;2023-02-19T13:37:19;7.68;;;1.17;;
28760;SDS011;15917;50.014;8.352;2023-02-19T13:39:46;2.63;;;1.40;;
28760;SDS011;15917;50.014;8.352;2023-02-19T13:42:33;4.32;;;1.67;;
28760;SDS011;15917;50.014;8.352;2023-02-19T13:45:03;5.53;;;1.25;;
28760;SDS011;15917;50.014;8.352;2023-02-19T13:47:46;5.72;;;1.27;;
28760;SDS011;15917;50.014;8.352;2023-02-19T13:50:32;6.53;;;1.30;;
28760;SDS011;15917;50.014;8.352;2023-02-19T13:52:59;4.30;;;1.20;;
28760;SDS011;15917;50.014;8.352;2023-02-19T13:55:48;5.13;;;1.25;;
28760;SDS011;15917;50.014;8.352;2023-02-19T14:01:18;6.70;;;1.40;;
28760;SDS011;15917;50.014;8.352;2023-02-19T14:06:12;6.40;;;1.67;;
28760;SDS011;15917;50.014;8.352;2023-02-19T14:08:47;3.53;;;1.60;;
28760;SDS011;15917;50.014;8.352;2023-02-19T14:11:17;8.70;;;1.38;;
28760;SDS011;15917;50.014;8.352;2023-02-19T14:14:03;4.82;;;1.30;;
28760;SDS011;15917;50.014;8.352;2023-02-19T14:16:55;11.77;;;2.58;;
28760;SDS011;15917;50.014;8.352;2023-02-19T14:25:34;2.88;;;1.20;;
28760;SDS011;15917;50.014;8.352;2023-02-19T14:30:41;2.05;;;1.00;;
28760;SDS011;15917;50.014;8.352;2023-02-19T14:33:20;2.42;;;0.85;;
28760;SDS011;15917;50.014;8.352;2023-02-19T14:35:50;1.73;;;0.90;;
28760;SDS011;15917;50.014;8.352;2023-02-19T14:38:32;6.97;;;1.30;;
28760;SDS011;15917;50.014;8.352;2023-02-19T14:41:02;6.03;;;1.35;;
28760;SDS011;15917;50.014;8.352;2023-02-19T14:43:28;4.35;;;0.90;;
28760;SDS011;15917;50.014;8.352;2023-02-19T14:45:59;2.03;;;0.60;;
28760;SDS011;15917;50.014;8.352;2023-02-19T14:48:38;1.52;;;0.80;;
28760;SDS011;15917;50.014;8.352;2023-02-19T14:51:11;0.63;;;0.60;;
28760;SDS011;15917;50.014;8.352;2023-02-19T14:53:46;1.17;;;0.73;;
28760;SDS011;15917;50.014;8.352;2023-02-19T14:56:23;5.60;;;0.95;;
28760;SDS011;15917;50.014;8.352;2023-02-19T14:59:04;1.08;;;0.70;;
28760;SDS011;15917;50.014;8.352;2023-02-19T15:01:36;1.13;;;0.60;;
28760;SDS011;15917;50.014;8.352;2023-02-19T15:04:03;1.13;;;0.80;;
28760;SDS011;15917;50.014;8.352;2023-02-19T15:06:29;2.63;;;0.47;;
28760;SDS011;15917;50.014;8.352;2023-02-19T15:08:57;2.80;;;0.90;;
28760;SDS011;15917;50.014;8.352;2023-02-19T15:11:26;3.47;;;1.00;;
28760;SDS011;15917;50.014;8.352;2023-02-19T15:14:00;2.55;;;0.88;;
28760;SDS011;15917;50.014;8.352;2023-02-19T15:16:27;3.83;;;1.00;;
28760;SDS011;15917;50.014;8.352;2023-02-19T15:18:55;9.55;;;1.30;;
28760;SDS011;15917;50.014;8.352;2023-02-19T15:21:29;2.92;;;1.05;;
28760;SDS011;15917;50.014;8.352;2023-02-19T15:23:57;4.80;;;1.20;;
28760;SDS011;15917;50.014;8.352;2023-02-19T15:26:33;4.15;;;1.38;;
28760;SDS011;15917;50.014;8.352;2023-02-19T15:29:01;2.65;;;1.00;;
28760;SDS011;15917;50.014;8.352;2023-02-19T15:31:34;3.55;;;1.10;;
28760;SDS011;15917;50.014;8.352;2023-02-19T15:34:00;3.42;;;1.13;;
28760;SDS011;15917;50.014;8.352;2023-02-19T15:36:29;1.80;;;1.10;;
28760;SDS011;15917;50.014;8.352;2023-02-19T15:38:58;4.95;;;1.42;;
28760;SDS011;15917;50.014;8.352;2023-02-19T15:41:26;3.35;;;1.40;;
28760;SDS011;15917;50.014;8.352;2023-02-19T15:44:06;2.15;;;1.10;;
28760;SDS011;15917;50.014;8.352;2023-02-19T15:46:53;6.03;;;1.63;;
28760;SDS011;15917;50.014;8.352;2023-02-19T15:49:21;4.05;;;1.67;;
28760;SDS011;15917;50.014;8.352;2023-02-19T15:52:11;4.25;;;1.30;;
28760;SDS011;15917;50.014;8.352;2023-02-19T15:54:53;3.47;;;1.52;;
28760;SDS011;15917;50.014;8.352;2023-02-19T15:57:41;6.40;;;1.65;;
28760;SDS011;15917;50.014;8.352;2023-02-19T16:00:25;4.07;;;1.08;;
28760;SDS011;15917;50.014;8.352;2023-02-19T16:02:54;4.03;;;1.25;;
28760;SDS011;15917;50.014;8.352;2023-02-19T16:05:22;3.65;;;1.35;;
28760;SDS011;15917;50.014;8.352;2023-02-19T16:08:06;5.63;;;1.65;;
28760;SDS011;15917;50.014;8.352;2023-02-19T16:10:56;5.35;;;1.80;;
28760;SDS011;15917;50.014;8.352;2023-02-19T16:13:24;4.13;;;1.27;;
28760;SDS011;15917;50.014;8.352;2023-02-19T16:15:56;3.97;;;1.42;;
28760;SDS011;15917;50.014;8.352;2023-02-19T16:18:27;4.25;;;1.58;;
28760;SDS011;15917;50.014;8.352;2023-02-19T16:20:53;3.20;;;1.17;;
28760;SDS011;15917;50.014;8.352;2023-02-19T16:23:20;4.68;;;1.60;;
28760;SDS011;15917;50.014;8.352;2023-02-19T16:25:49;4.93;;;1.42;;
28760;SDS011;15917;50.014;8.352;2023-02-19T16:28:26;7.13;;;1.83;;
28760;SDS011;15917;50.014;8.352;2023-02-19T16:30:56;5.13;;;1.75;;
28760;SDS011;15917;50.014;8.352;2023-02-19T16:36:14;3.85;;;1.90;;
28760;SDS011;15917;50.014;8.352;2023-02-19T16:38:40;4.65;;;1.90;;
28760;SDS011;15917;50.014;8.352;2023-02-19T16:41:09;9.13;;;2.45;;
28760;SDS011;15917;50.014;8.352;2023-02-19T16:43:40;9.95;;;2.42;;
28760;SDS011;15917;50.014;8.352;2023-02-19T16:46:10;8.23;;;2.38;;
28760;SDS011;15917;50.014;8.352;2023-02-19T16:48:37;6.32;;;2.88;;
28760;SDS011;15917;50.014;8.352;2023-02-19T16:51:06;5.32;;;2.55;;
28760;SDS011;15917;50.014;8.352;2023-02-19T16:53:33;13.18;;;2.95;;
28760;SDS011;15917;50.014;8.352;2023-02-19T16:55:59;9.07;;;2.08;;